METAR Data
IDs: Format: Raw Decoded Include TAF

Data at: 1152 UTC 23 Sep 2018

KCGI 231135Z AUTO 04005KT 10SM -RA OVC010 17/15 A3005 RMK AO2 RAB15 CIG 006V013 P0001 T01670150
KCGI 231053Z AUTO 04003KT 10SM OVC009 17/15 A3004 RMK AO2 RAE0958 CIG 007V013 SLP172 P0000 T01670150
KCGI 230953Z AUTO 03006KT 9SM -RA OVC008 17/15 A3004 RMK AO2 RAB06E20B42 CIG 006V013 SLP171 P0000 T01670150
KCGI 230853Z AUTO 06006KT 8SM BKN006 17/16 A3003 RMK AO2 RAE51 SLP166 P0010 60016 T01670156 58017
KCGI 230824Z AUTO 04006KT 4SM -RA BR BKN006 BKN012 OVC016 16/15 A3003 RMK AO2 P0008 T01610150
KCGI 230812Z AUTO 02004KT 2 1/2SM +RA BR BKN006 OVC012 16/15 A3004 RMK AO2 P0007 T01610150
KCGI 230753Z AUTO 05004KT 5SM -RA BR BKN009 OVC014 17/15 A3005 RMK AO2 RAB18 SLP175 P0006 T01670150
KCGI 230739Z AUTO 05003KT 4SM -RA BR BKN009 OVC014 17/15 A3005 RMK AO2 RAB18 P0005 T01670150
KCGI 230728Z AUTO 05004KT 2 1/2SM +RA BR BKN009 OVC014 17/15 A3005 RMK AO2 RAB18 P0004 T01670150
KCGI 230711Z AUTO 02006KT 10SM OVC010 17/15 A3006 RMK AO2 CIG 008V014 T01670150
KCGI 230653Z AUTO 06004KT 10SM BKN009 OVC013 17/15 A3005 RMK AO2 SLP175 T01670150
KCGI 230639Z AUTO 03005KT 10SM BKN009 OVC020 17/15 A3005 RMK AO2 T01670150
KCGI 230630Z AUTO 04009KT 10SM SCT009 OVC020 17/15 A3005 RMK AO2 T01670150
KCGI 230609Z AUTO 05005KT 10SM SCT011 OVC020 17/15 A3006 RMK AO2 T01670150
KCGI 230553Z AUTO 01005KT 10SM BKN010 OVC022 17/15 A3007 RMK AO2 CIG 009V014 SLP182 T01670150 10167 20167 402060161 58007
KCGI 230528Z AUTO 03006KT 10SM BKN010 OVC026 17/14 A3007 RMK AO2 T01670144
KCGI 230505Z AUTO 05008KT 10SM FEW011 BKN023 OVC036 17/14 A3007 RMK AO2 T01670144
KCGI 230453Z AUTO 05006KT 10SM BKN011 OVC023 17/14 A3007 RMK AO2 SLP182 T01670144
KCGI 230406Z AUTO 04006KT 10SM BKN013 OVC025 17/14 A3009 RMK AO2 T01670144
KCGI 230353Z AUTO 01006KT 10SM SCT010 OVC025 17/14 A3010 RMK AO2 SLP191 T01670144
KCGI 230253Z AUTO 04009KT 10SM FEW010 OVC026 17/14 A3010 RMK AO2 SLP190 T01670144 58004
KCGI 230153Z AUTO 03008KT 10SM SCT011 BKN023 OVC030 17/14 A3012 RMK AO2 SLP197 T01670144
KCGI 230129Z AUTO 02009KT 10SM SCT011 OVC023 17/14 A3011 RMK AO2 T01670144
KCGI 230053Z AUTO 03006KT 10SM BKN012 OVC025 17/15 A3010 RMK AO2 SLP193 T01670150
KCGI 230019Z AUTO 02008KT 10SM BKN014 OVC023 17/15 A3011 RMK AO2 T01670150
KCGI 222353Z AUTO 03009KT 10SM FEW012 OVC023 17/15 A3011 RMK AO2 SLP194 60030 T01670150 10172 20167 50003
KCGI 222348Z AUTO 03008KT 10SM SCT012 OVC023 17/15 A3011 RMK AO2
KCGI 222253Z AUTO 02008KT 10SM OVC013 17/15 A3010 RMK AO2 SLP192 T01720150
KCGI 222153Z AUTO 03008KT 10SM OVC011 17/16 A3010 RMK AO2 RAE32 SLP191 P0003 T01720156
KCGI 222133Z 03010KT 10SM OVC011 17/16 A3010 RMK AO2 RAE32 CIG 006V014 P0003 T01720156
KCGI 222121Z 03008KT 10SM -RA OVC009 17/16 A3010 RMK AO2 CIG 006V013 P0003 T01720156
KCGI 222053Z 02009KT 8SM -RA OVC011 17/16 A3010 RMK AO2 SLP193 P0003 60027 T01720156 56017
KCGI 222009Z 02010KT 10SM -RA SCT010 BKN014 OVC095 17/16 A3011 RMK AO2 P0000 T01720156
KCGI 221953Z 02011KT 8SM -RA BKN008 OVC012 17/16 A3012 RMK AO2 SLP197 P0003 T01720156
KCGI 221853Z 04005KT 4SM -RA BR BKN007 BKN010 OVC075 17/16 A3014 RMK AO2 SLP205 P0021 T01720156
KCGI 221841Z 04006KT 3SM RA BR BKN007 BKN034 OVC060 17/16 A3015 RMK AO2 P0020 T01720156
KCGI 221818Z 02005KT 2 1/2SM +RA BR BKN008 BKN011 OVC060 17/16 A3016 RMK AO2 P0013 T01670156
KCGI 221810Z 02007KT 1 3/4SM R10/6000VP6000FT +RA BR BKN006 OVC060 17/16 A3017 RMK AO2 P0010 T01670156
KCGI 221802Z 01004KT 2SM +RA BR SCT008 OVC055 17/16 A3017 RMK AO2 P0005 T01670156
KCGI 221753Z 03006KT 3SM +RA BR FEW008 OVC060 17/16 A3016 RMK AO2 SLP209 P0014 60042 T01670156 10167 20161 58010
KCGI 221653Z 03009KT 8SM -RA SCT009 BKN065 OVC080 17/15 A3016 RMK AO2 SLP212 P0004 T01670150
KCGI 221553Z 03010KT 5SM -RA BR SCT009 OVC070 16/14 A3018 RMK AO2 SLP219 P0006 T01610144
KCGI 221523Z 04010KT 8SM -RA FEW008 OVC070 16/14 A3019 RMK AO2 P0002 T01610144
KCGI 221453Z 05010KT 8SM -RA OVC070 16/14 A3019 RMK AO2 SLP219 P0011 60018 T01610144 51010
KCGI 221353Z 35005KT 7SM RA OVC085 16/14 A3018 RMK AO2 SLP218 P0006 T01610144
KCGI 221253Z 05009KT 10SM -RA OVC095 16/14 A3017 RMK AO2 RAE03B41 SLP215 P0001 T01610139
KCGI 221153Z 03007KT 10SM -RA BKN110 16/14 A3015 RMK AO2 SLP209 P0004 60024 70024 T01610139 10206 20161 56006
KCGI 221053Z AUTO 03006KT 9SM RA BKN090 OVC110 16/14 A3017 RMK AO2 SLP213 P0008 T01610139
KCGI 220953Z AUTO 36008KT 10SM -RA OVC110 17/14 A3015 RMK AO2 SLP207 P0007 T01670139
KCGI 220853Z AUTO 35004KT 6SM RA FEW090 OVC110 17/14 A3017 RMK AO2 RAB10 SLP214 P0005 60005 T01720144 53006
KCGI 220753Z AUTO 02009KT 10SM FEW090 BKN120 19/12 A3014 RMK AO2 SLP203 T01940122
KCGI 220653Z AUTO 02011G18KT 10SM FEW095 SCT110 20/12 A3014 RMK AO2 SLP203 T02000122
KCGI 220553Z AUTO 03013KT 10SM CLR 21/12 A3016 RMK AO2 SLP208 60000 T02060122 10250 20206 403170206 51014
KCGI 220453Z AUTO 02013G17KT 10SM FEW070 SCT080 BKN110 21/13 A3015 RMK AO2 SLP206 T02110128
KCGI 220353Z AUTO 02013G21KT 10SM CLR 22/13 A3015 RMK AO2 SLP205 T02220128
KCGI 220253Z AUTO 01011G20KT 10SM CLR 23/15 A3012 RMK AO2 RAE0154 SLP195 P0000 60000 T02330150 51023
KCGI 220153Z AUTO 01007KT 10SM -RA FEW110 24/20 A3009 RMK AO2 RAB42 SLP186 P0000 T02390200
KCGI 220053Z AUTO 35005KT 10SM FEW110 24/20 A3007 RMK AO2 RAB27E37 SLP180 P0000 T02440200
KCGI 212353Z AUTO 35004KT 10SM FEW120 25/19 A3005 RMK AO2 SLP171 T02500194 10317 20250 53009